sensor_id;sensor_type;location;lat;lon;timestamp;temperature;humidity
49731;DHT22;35622;52.008;5.426;2023-12-07T00:00:52;5.10;87.50
49731;DHT22;35622;52.008;5.426;2023-12-07T00:03:17;5.10;87.50
49731;DHT22;35622;52.008;5.426;2023-12-07T00:05:43;5.10;87.30
49731;DHT22;35622;52.008;5.426;2023-12-07T00:08:12;5.10;87.00
49731;DHT22;35622;52.008;5.426;2023-12-07T00:10:37;5.10;86.80
49731;DHT22;35622;52.008;5.426;2023-12-07T00:13:03;5.00;87.30
49731;DHT22;35622;52.008;5.426;2023-12-07T00:15:28;5.10;87.10
49731;DHT22;35622;52.008;5.426;2023-12-07T00:17:54;5.00;87.30
49731;DHT22;35622;52.008;5.426;2023-12-07T00:20:19;4.90;87.90
49731;DHT22;35622;52.008;5.426;2023-12-07T00:22:45;4.90;88.20
49731;DHT22;35622;52.008;5.426;2023-12-07T00:25:11;5.10;88.40
49731;DHT22;35622;52.008;5.426;2023-12-07T00:27:36;5.10;87.70
49731;DHT22;35622;52.008;5.426;2023-12-07T00:30:02;5.20;87.50
49731;DHT22;35622;52.008;5.426;2023-12-07T00:32:28;5.00;87.80
49731;DHT22;35622;52.008;5.426;2023-12-07T00:35:10;5.00;88.40
49731;DHT22;35622;52.008;5.426;2023-12-07T00:37:36;5.20;88.20
49731;DHT22;35622;52.008;5.426;2023-12-07T00:40:02;5.10;87.90
49731;DHT22;35622;52.008;5.426;2023-12-07T00:42:29;5.10;87.70
49731;DHT22;35622;52.008;5.426;2023-12-07T00:44:55;5.10;88.30
49731;DHT22;35622;52.008;5.426;2023-12-07T00:47:21;5.10;88.20
49731;DHT22;35622;52.008;5.426;2023-12-07T00:49:47;5.20;87.80
49731;DHT22;35622;52.008;5.426;2023-12-07T00:52:13;5.20;87.70
49731;DHT22;35622;52.008;5.426;2023-12-07T00:54:38;5.10;87.80
49731;DHT22;35622;52.008;5.426;2023-12-07T00:57:05;5.10;88.40
49731;DHT22;35622;52.008;5.426;2023-12-07T00:59:30;5.10;88.10
49731;DHT22;35622;52.008;5.426;2023-12-07T01:02:05;5.10;88.80
49731;DHT22;35622;52.008;5.426;2023-12-07T01:04:32;5.10;87.80
49731;DHT22;35622;52.008;5.426;2023-12-07T01:06:58;5.10;88.10
49731;DHT22;35622;52.008;5.426;2023-12-07T01:09:24;5.20;87.70
49731;DHT22;35622;52.008;5.426;2023-12-07T01:11:50;5.10;87.70
49731;DHT22;35622;52.008;5.426;2023-12-07T01:14:16;5.20;87.80
49731;DHT22;35622;52.008;5.426;2023-12-07T01:16:42;5.10;87.40
49731;DHT22;35622;52.008;5.426;2023-12-07T01:19:08;5.20;87.50
49731;DHT22;35622;52.008;5.426;2023-12-07T01:21:34;5.10;87.40
49731;DHT22;35622;52.008;5.426;2023-12-07T01:24:00;5.10;87.60
49731;DHT22;35622;52.008;5.426;2023-12-07T01:26:25;5.20;87.00
49731;DHT22;35622;52.008;5.426;2023-12-07T01:28:51;5.20;87.10
49731;DHT22;35622;52.008;5.426;2023-12-07T01:31:17;5.20;87.30
49731;DHT22;35622;52.008;5.426;2023-12-07T01:33:43;5.10;87.30
49731;DHT22;35622;52.008;5.426;2023-12-07T01:36:09;5.00;87.90
49731;DHT22;35622;52.008;5.426;2023-12-07T01:38:35;5.10;87.80
49731;DHT22;35622;52.008;5.426;2023-12-07T01:41:01;5.00;87.70
49731;DHT22;35622;52.008;5.426;2023-12-07T01:43:26;5.00;87.80
49731;DHT22;35622;52.008;5.426;2023-12-07T01:45:54;5.00;88.20
49731;DHT22;35622;52.008;5.426;2023-12-07T01:48:21;4.90;88.40
49731;DHT22;35622;52.008;5.426;2023-12-07T01:50:47;5.00;89.80
49731;DHT22;35622;52.008;5.426;2023-12-07T01:53:13;4.90;89.20
49731;DHT22;35622;52.008;5.426;2023-12-07T01:55:39;4.90;89.60
49731;DHT22;35622;52.008;5.426;2023-12-07T01:58:06;5.00;89.70
49731;DHT22;35622;52.008;5.426;2023-12-07T02:00:33;5.00;90.30
49731;DHT22;35622;52.008;5.426;2023-12-07T02:03:00;5.20;89.80
49731;DHT22;35622;52.008;5.426;2023-12-07T02:05:26;5.20;89.20
49731;DHT22;35622;52.008;5.426;2023-12-07T02:07:52;5.30;89.00
49731;DHT22;35622;52.008;5.426;2023-12-07T02:10:18;5.20;89.00
49731;DHT22;35622;52.008;5.426;2023-12-07T02:12:44;5.20;88.90
49731;DHT22;35622;52.008;5.426;2023-12-07T02:15:10;5.20;89.10
49731;DHT22;35622;52.008;5.426;2023-12-07T02:17:51;5.20;88.40
49731;DHT22;35622;52.008;5.426;2023-12-07T02:20:32;5.20;88.30
49731;DHT22;35622;52.008;5.426;2023-12-07T02:23:02;5.20;88.20
49731;DHT22;35622;52.008;5.426;2023-12-07T02:25:36;5.20;88.20
49731;DHT22;35622;52.008;5.426;2023-12-07T02:28:03;5.20;88.00
49731;DHT22;35622;52.008;5.426;2023-12-07T02:30:28;5.10;87.70
49731;DHT22;35622;52.008;5.426;2023-12-07T02:32:54;5.10;87.70
49731;DHT22;35622;52.008;5.426;2023-12-07T02:35:20;5.10;88.70
49731;DHT22;35622;52.008;5.426;2023-12-07T02:37:48;5.00;88.10
49731;DHT22;35622;52.008;5.426;2023-12-07T02:40:21;5.10;88.60
49731;DHT22;35622;52.008;5.426;2023-12-07T02:42:47;5.10;87.60
49731;DHT22;35622;52.008;5.426;2023-12-07T02:45:13;5.20;87.70
49731;DHT22;35622;52.008;5.426;2023-12-07T02:47:40;5.10;87.60
49731;DHT22;35622;52.008;5.426;2023-12-07T02:50:07;5.00;87.80
49731;DHT22;35622;52.008;5.426;2023-12-07T02:52:33;5.10;87.80
49731;DHT22;35622;52.008;5.426;2023-12-07T02:54:59;5.10;87.50
49731;DHT22;35622;52.008;5.426;2023-12-07T02:57:25;5.10;87.90
49731;DHT22;35622;52.008;5.426;2023-12-07T02:59:50;5.10;87.70
49731;DHT22;35622;52.008;5.426;2023-12-07T03:02:16;5.10;87.50
49731;DHT22;35622;52.008;5.426;2023-12-07T03:04:41;5.10;88.00
49731;DHT22;35622;52.008;5.426;2023-12-07T03:07:07;5.00;87.90
49731;DHT22;35622;52.008;5.426;2023-12-07T03:09:33;5.10;88.00
49731;DHT22;35622;52.008;5.426;2023-12-07T03:11:58;5.00;87.80
49731;DHT22;35622;52.008;5.426;2023-12-07T03:14:24;5.10;88.00
49731;DHT22;35622;52.008;5.426;2023-12-07T03:16:49;5.00;87.90
49731;DHT22;35622;52.008;5.426;2023-12-07T03:19:15;5.10;87.90
49731;DHT22;35622;52.008;5.426;2023-12-07T03:21:41;5.00;88.10
49731;DHT22;35622;52.008;5.426;2023-12-07T03:24:08;5.00;88.30
49731;DHT22;35622;52.008;5.426;2023-12-07T03:26:34;5.00;88.00
49731;DHT22;35622;52.008;5.426;2023-12-07T03:29:00;4.90;88.20
49731;DHT22;35622;52.008;5.426;2023-12-07T03:31:27;5.10;88.10
49731;DHT22;35622;52.008;5.426;2023-12-07T03:33:53;5.10;88.80
49731;DHT22;35622;52.008;5.426;2023-12-07T03:36:18;5.10;87.90
49731;DHT22;35622;52.008;5.426;2023-12-07T03:38:44;5.10;88.10
49731;DHT22;35622;52.008;5.426;2023-12-07T03:41:09;5.20;88.20
49731;DHT22;35622;52.008;5.426;2023-12-07T03:43:35;5.10;88.10
49731;DHT22;35622;52.008;5.426;2023-12-07T03:46:04;5.10;88.30
49731;DHT22;35622;52.008;5.426;2023-12-07T03:48:30;5.10;88.30
49731;DHT22;35622;52.008;5.426;2023-12-07T03:50:55;5.10;88.40
49731;DHT22;35622;52.008;5.426;2023-12-07T03:53:21;5.10;88.50
49731;DHT22;35622;52.008;5.426;2023-12-07T03:55:47;5.10;89.00
49731;DHT22;35622;52.008;5.426;2023-12-07T03:58:12;5.00;89.40
49731;DHT22;35622;52.008;5.426;2023-12-07T04:00:39;5.00;89.70
49731;DHT22;35622;52.008;5.426;2023-12-07T04:03:04;5.00;89.80
49731;DHT22;35622;52.008;5.426;2023-12-07T04:05:30;5.00;90.00
49731;DHT22;35622;52.008;5.426;2023-12-07T04:07:56;5.10;90.10
49731;DHT22;35622;52.008;5.426;2023-12-07T04:10:21;5.10;90.20
49731;DHT22;35622;52.008;5.426;2023-12-07T04:12:47;5.10;90.20
49731;DHT22;35622;52.008;5.426;2023-12-07T04:15:13;5.10;90.20
49731;DHT22;35622;52.008;5.426;2023-12-07T04:17:38;5.20;90.30
49731;DHT22;35622;52.008;5.426;2023-12-07T04:20:04;5.20;90.30
49731;DHT22;35622;52.008;5.426;2023-12-07T04:22:31;5.30;90.40
49731;DHT22;35622;52.008;5.426;2023-12-07T04:24:56;5.30;90.40
49731;DHT22;35622;52.008;5.426;2023-12-07T04:27:22;5.30;90.40
49731;DHT22;35622;52.008;5.426;2023-12-07T04:29:48;5.30;90.50
49731;DHT22;35622;52.008;5.426;2023-12-07T04:32:13;5.30;90.50
49731;DHT22;35622;52.008;5.426;2023-12-07T04:34:39;5.30;91.10
49731;DHT22;35622;52.008;5.426;2023-12-07T04:37:04;5.20;90.70
49731;DHT22;35622;52.008;5.426;2023-12-07T04:39:30;5.30;90.70
49731;DHT22;35622;52.008;5.426;2023-12-07T04:41:56;5.40;90.60
49731;DHT22;35622;52.008;5.426;2023-12-07T04:44:21;5.40;90.60
49731;DHT22;35622;52.008;5.426;2023-12-07T04:46:55;5.40;90.60
49731;DHT22;35622;52.008;5.426;2023-12-07T04:49:20;5.40;90.70
49731;DHT22;35622;52.008;5.426;2023-12-07T04:51:46;5.40;90.70
49731;DHT22;35622;52.008;5.426;2023-12-07T04:54:12;5.40;90.70
49731;DHT22;35622;52.008;5.426;2023-12-07T04:56:40;5.40;90.60
49731;DHT22;35622;52.008;5.426;2023-12-07T04:59:07;5.40;90.80
49731;DHT22;35622;52.008;5.426;2023-12-07T05:01:32;5.40;90.80
49731;DHT22;35622;52.008;5.426;2023-12-07T05:03:58;5.40;90.90
49731;DHT22;35622;52.008;5.426;2023-12-07T05:06:23;5.40;90.90
49731;DHT22;35622;52.008;5.426;2023-12-07T05:08:50;5.40;90.90
49731;DHT22;35622;52.008;5.426;2023-12-07T05:11:15;5.50;90.90
49731;DHT22;35622;52.008;5.426;2023-12-07T05:13:41;5.50;90.90
49731;DHT22;35622;52.008;5.426;2023-12-07T05:16:08;5.50;91.20
49731;DHT22;35622;52.008;5.426;2023-12-07T05:18:33;5.40;91.10
49731;DHT22;35622;52.008;5.426;2023-12-07T05:20:59;5.40;91.20
49731;DHT22;35622;52.008;5.426;2023-12-07T05:23:25;5.50;91.40
49731;DHT22;35622;52.008;5.426;2023-12-07T05:25:50;5.60;91.30
49731;DHT22;35622;52.008;5.426;2023-12-07T05:28:16;5.60;91.30
49731;DHT22;35622;52.008;5.426;2023-12-07T05:30:42;5.50;91.30
49731;DHT22;35622;52.008;5.426;2023-12-07T05:33:07;5.60;91.40
49731;DHT22;35622;52.008;5.426;2023-12-07T05:35:33;5.60;91.40
49731;DHT22;35622;52.008;5.426;2023-12-07T05:37:59;5.60;91.50
49731;DHT22;35622;52.008;5.426;2023-12-07T05:40:24;5.60;91.60
49731;DHT22;35622;52.008;5.426;2023-12-07T05:42:50;5.50;91.60
49731;DHT22;35622;52.008;5.426;2023-12-07T05:45:16;5.40;91.80
49731;DHT22;35622;52.008;5.426;2023-12-07T05:47:42;5.40;91.70
49731;DHT22;35622;52.008;5.426;2023-12-07T05:50:08;5.40;92.00
49731;DHT22;35622;52.008;5.426;2023-12-07T05:52:33;5.30;91.90
49731;DHT22;35622;52.008;5.426;2023-12-07T05:54:59;5.40;91.90
49731;DHT22;35622;52.008;5.426;2023-12-07T05:57:25;5.50;91.90
49731;DHT22;35622;52.008;5.426;2023-12-07T05:59:50;5.40;91.70
49731;DHT22;35622;52.008;5.426;2023-12-07T06:02:16;5.40;91.70
49731;DHT22;35622;52.008;5.426;2023-12-07T06:04:42;5.40;91.80
49731;DHT22;35622;52.008;5.426;2023-12-07T06:07:07;5.40;91.80
49731;DHT22;35622;52.008;5.426;2023-12-07T06:09:33;5.30;92.00
49731;DHT22;35622;52.008;5.426;2023-12-07T06:11:59;5.40;92.10
49731;DHT22;35622;52.008;5.426;2023-12-07T06:14:25;5.50;92.00
49731;DHT22;35622;52.008;5.426;2023-12-07T06:16:50;5.50;91.80
49731;DHT22;35622;52.008;5.426;2023-12-07T06:19:16;5.60;91.70
49731;DHT22;35622;52.008;5.426;2023-12-07T06:21:43;5.60;91.50
49731;DHT22;35622;52.008;5.426;2023-12-07T06:24:09;5.50;91.50
49731;DHT22;35622;52.008;5.426;2023-12-07T06:26:35;5.50;91.60
49731;DHT22;35622;52.008;5.426;2023-12-07T06:29:01;5.40;91.60
49731;DHT22;35622;52.008;5.426;2023-12-07T06:31:27;5.50;91.50
49731;DHT22;35622;52.008;5.426;2023-12-07T06:33:53;5.60;91.50
49731;DHT22;35622;52.008;5.426;2023-12-07T06:36:23;5.70;91.30
49731;DHT22;35622;52.008;5.426;2023-12-07T06:38:49;5.70;91.30
49731;DHT22;35622;52.008;5.426;2023-12-07T06:41:15;5.70;91.20
49731;DHT22;35622;52.008;5.426;2023-12-07T06:43:44;5.60;91.80
49731;DHT22;35622;52.008;5.426;2023-12-07T06:46:13;5.70;91.60
49731;DHT22;35622;52.008;5.426;2023-12-07T06:48:40;5.70;91.50
49731;DHT22;35622;52.008;5.426;2023-12-07T06:51:06;5.70;91.50
49731;DHT22;35622;52.008;5.426;2023-12-07T06:53:32;5.40;91.50
49731;DHT22;35622;52.008;5.426;2023-12-07T06:55:58;5.50;91.70
49731;DHT22;35622;52.008;5.426;2023-12-07T06:58:24;5.30;91.80
49731;DHT22;35622;52.008;5.426;2023-12-07T07:00:49;5.30;92.00
49731;DHT22;35622;52.008;5.426;2023-12-07T07:03:15;5.40;91.90
49731;DHT22;35622;52.008;5.426;2023-12-07T07:05:42;5.40;91.90
49731;DHT22;35622;52.008;5.426;2023-12-07T07:08:07;4.90;91.90
49731;DHT22;35622;52.008;5.426;2023-12-07T07:10:34;5.00;92.30
49731;DHT22;35622;52.008;5.426;2023-12-07T07:13:03;4.90;92.30
49731;DHT22;35622;52.008;5.426;2023-12-07T07:15:30;4.90;92.50
49731;DHT22;35622;52.008;5.426;2023-12-07T07:17:56;5.10;92.50
49731;DHT22;35622;52.008;5.426;2023-12-07T07:20:22;5.20;92.30
49731;DHT22;35622;52.008;5.426;2023-12-07T07:22:47;5.10;92.20
49731;DHT22;35622;52.008;5.426;2023-12-07T07:25:13;5.10;92.20
49731;DHT22;35622;52.008;5.426;2023-12-07T07:27:41;5.10;92.20
49731;DHT22;35622;52.008;5.426;2023-12-07T07:30:07;5.20;92.10
49731;DHT22;35622;52.008;5.426;2023-12-07T07:32:34;4.80;92.40
49731;DHT22;35622;52.008;5.426;2023-12-07T07:34:59;4.70;92.90
49731;DHT22;35622;52.008;5.426;2023-12-07T07:37:25;4.50;92.80
49731;DHT22;35622;52.008;5.426;2023-12-07T07:39:50;4.70;92.80
49731;DHT22;35622;52.008;5.426;2023-12-07T07:42:16;4.60;93.00
49731;DHT22;35622;52.008;5.426;2023-12-07T07:44:42;4.80;92.90
49731;DHT22;35622;52.008;5.426;2023-12-07T07:47:08;4.90;92.70
49731;DHT22;35622;52.008;5.426;2023-12-07T07:49:33;4.90;92.50
49731;DHT22;35622;52.008;5.426;2023-12-07T07:51:59;4.80;92.50
49731;DHT22;35622;52.008;5.426;2023-12-07T07:54:25;4.70;92.50
49731;DHT22;35622;52.008;5.426;2023-12-07T07:56:51;4.50;93.00
49731;DHT22;35622;52.008;5.426;2023-12-07T07:59:16;4.30;93.20
49731;DHT22;35622;52.008;5.426;2023-12-07T08:01:42;4.30;93.30
49731;DHT22;35622;52.008;5.426;2023-12-07T08:04:09;4.10;93.90
49731;DHT22;35622;52.008;5.426;2023-12-07T08:06:35;4.10;94.20
49731;DHT22;35622;52.008;5.426;2023-12-07T08:09:01;4.40;94.10
49731;DHT22;35622;52.008;5.426;2023-12-07T08:11:26;4.50;94.10
49731;DHT22;35622;52.008;5.426;2023-12-07T08:13:52;4.70;93.60
49731;DHT22;35622;52.008;5.426;2023-12-07T08:16:18;4.80;93.30
49731;DHT22;35622;52.008;5.426;2023-12-07T08:18:44;4.60;93.50
49731;DHT22;35622;52.008;5.426;2023-12-07T08:21:21;4.70;93.60
49731;DHT22;35622;52.008;5.426;2023-12-07T08:23:47;4.80;93.40
49731;DHT22;35622;52.008;5.426;2023-12-07T08:26:12;4.70;93.70
49731;DHT22;35622;52.008;5.426;2023-12-07T08:28:40;4.90;93.60
49731;DHT22;35622;52.008;5.426;2023-12-07T08:31:06;4.80;93.40
49731;DHT22;35622;52.008;5.426;2023-12-07T08:33:32;4.70;93.50
49731;DHT22;35622;52.008;5.426;2023-12-07T08:36:00;4.70;93.60
49731;DHT22;35622;52.008;5.426;2023-12-07T08:38:26;4.60;93.90
49731;DHT22;35622;52.008;5.426;2023-12-07T08:40:52;4.70;93.70
49731;DHT22;35622;52.008;5.426;2023-12-07T08:43:21;4.70;93.90
49731;DHT22;35622;52.008;5.426;2023-12-07T08:45:48;4.90;93.50
49731;DHT22;35622;52.008;5.426;2023-12-07T08:48:14;4.50;93.80
49731;DHT22;35622;52.008;5.426;2023-12-07T08:50:39;4.40;94.20
49731;DHT22;35622;52.008;5.426;2023-12-07T08:53:06;4.40;94.40
49731;DHT22;35622;52.008;5.426;2023-12-07T08:55:31;4.40;94.40
49731;DHT22;35622;52.008;5.426;2023-12-07T08:57:57;4.50;94.60
49731;DHT22;35622;52.008;5.426;2023-12-07T09:00:25;4.50;94.60
49731;DHT22;35622;52.008;5.426;2023-12-07T09:02:51;4.60;94.50
49731;DHT22;35622;52.008;5.426;2023-12-07T09:05:20;4.80;94.10
49731;DHT22;35622;52.008;5.426;2023-12-07T09:07:45;4.60;94.00
49731;DHT22;35622;52.008;5.426;2023-12-07T09:10:11;4.70;94.10
49731;DHT22;35622;52.008;5.426;2023-12-07T09:12:37;4.50;94.00
49731;DHT22;35622;52.008;5.426;2023-12-07T09:15:03;4.60;94.20
49731;DHT22;35622;52.008;5.426;2023-12-07T09:17:29;4.60;94.20
49731;DHT22;35622;52.008;5.426;2023-12-07T09:19:55;4.80;94.10
49731;DHT22;35622;52.008;5.426;2023-12-07T09:22:21;4.80;93.60
49731;DHT22;35622;52.008;5.426;2023-12-07T09:24:46;4.80;93.70
49731;DHT22;35622;52.008;5.426;2023-12-07T09:27:13;4.70;93.70
49731;DHT22;35622;52.008;5.426;2023-12-07T09:29:39;4.50;93.80
49731;DHT22;35622;52.008;5.426;2023-12-07T09:32:06;4.70;94.00
49731;DHT22;35622;52.008;5.426;2023-12-07T09:34:32;4.70;93.80
49731;DHT22;35622;52.008;5.426;2023-12-07T09:37:07;4.70;93.90
49731;DHT22;35622;52.008;5.426;2023-12-07T09:39:34;4.90;94.00
49731;DHT22;35622;52.008;5.426;2023-12-07T09:42:00;4.90;93.70
49731;DHT22;35622;52.008;5.426;2023-12-07T09:44:26;5.00;93.90
49731;DHT22;35622;52.008;5.426;2023-12-07T09:46:52;5.10;93.70
49731;DHT22;35622;52.008;5.426;2023-12-07T09:49:17;5.20;93.30
49731;DHT22;35622;52.008;5.426;2023-12-07T09:51:44;5.10;93.40
49731;DHT22;35622;52.008;5.426;2023-12-07T09:54:11;5.20;93.50
49731;DHT22;35622;52.008;5.426;2023-12-07T09:56:36;5.30;93.50
49731;DHT22;35622;52.008;5.426;2023-12-07T09:59:02;5.40;93.40
49731;DHT22;35622;52.008;5.426;2023-12-07T10:01:29;5.40;93.10
49731;DHT22;35622;52.008;5.426;2023-12-07T10:04:21;5.30;93.00
49731;DHT22;35622;52.008;5.426;2023-12-07T10:06:52;5.10;93.50
49731;DHT22;35622;52.008;5.426;2023-12-07T10:09:18;5.40;93.50
49731;DHT22;35622;52.008;5.426;2023-12-07T10:11:44;4.90;93.90
49731;DHT22;35622;52.008;5.426;2023-12-07T10:14:10;4.70;94.10
49731;DHT22;35622;52.008;5.426;2023-12-07T10:16:36;4.50;94.70
49731;DHT22;35622;52.008;5.426;2023-12-07T10:19:28;4.60;95.20
49731;DHT22;35622;52.008;5.426;2023-12-07T10:21:54;4.50;95.40
49731;DHT22;35622;52.008;5.426;2023-12-07T10:24:22;4.70;95.30
49731;DHT22;35622;52.008;5.426;2023-12-07T10:26:48;5.00;94.90
49731;DHT22;35622;52.008;5.426;2023-12-07T10:29:14;5.10;94.60
49731;DHT22;35622;52.008;5.426;2023-12-07T10:31:42;5.10;94.50
49731;DHT22;35622;52.008;5.426;2023-12-07T10:34:09;5.30;94.50
49731;DHT22;35622;52.008;5.426;2023-12-07T10:36:34;5.30;94.30
49731;DHT22;35622;52.008;5.426;2023-12-07T10:39:01;5.20;94.20
49731;DHT22;35622;52.008;5.426;2023-12-07T10:41:26;5.50;94.10
49731;DHT22;35622;52.008;5.426;2023-12-07T10:43:54;5.30;93.70
49731;DHT22;35622;52.008;5.426;2023-12-07T10:46:22;5.10;93.90
49731;DHT22;35622;52.008;5.426;2023-12-07T10:48:48;4.70;94.80
49731;DHT22;35622;52.008;5.426;2023-12-07T10:51:38;4.90;95.00
49731;DHT22;35622;52.008;5.426;2023-12-07T10:54:07;4.90;95.00
49731;DHT22;35622;52.008;5.426;2023-12-07T10:56:43;5.00;94.80
49731;DHT22;35622;52.008;5.426;2023-12-07T10:59:10;4.90;95.20
49731;DHT22;35622;52.008;5.426;2023-12-07T11:01:40;5.10;95.00
49731;DHT22;35622;52.008;5.426;2023-12-07T11:04:06;5.10;94.70
49731;DHT22;35622;52.008;5.426;2023-12-07T11:06:33;5.00;94.70
49731;DHT22;35622;52.008;5.426;2023-12-07T11:09:02;5.20;94.80
49731;DHT22;35622;52.008;5.426;2023-12-07T11:11:40;5.10;94.60
49731;DHT22;35622;52.008;5.426;2023-12-07T11:14:08;5.30;94.50
49731;DHT22;35622;52.008;5.426;2023-12-07T11:16:41;4.90;94.70
49731;DHT22;35622;52.008;5.426;2023-12-07T11:22:01;5.00;94.80
49731;DHT22;35622;52.008;5.426;2023-12-07T11:24:27;5.00;95.00
49731;DHT22;35622;52.008;5.426;2023-12-07T11:26:53;5.20;94.80
49731;DHT22;35622;52.008;5.426;2023-12-07T11:29:20;5.40;94.50
49731;DHT22;35622;52.008;5.426;2023-12-07T11:31:48;5.00;94.50
49731;DHT22;35622;52.008;5.426;2023-12-07T11:34:13;5.10;95.10
49731;DHT22;35622;52.008;5.426;2023-12-07T11:36:40;5.20;95.00
49731;DHT22;35622;52.008;5.426;2023-12-07T11:41:45;5.30;94.60
49731;DHT22;35622;52.008;5.426;2023-12-07T11:44:15;5.00;95.30
49731;DHT22;35622;52.008;5.426;2023-12-07T11:46:42;5.00;95.40
49731;DHT22;35622;52.008;5.426;2023-12-07T11:49:08;5.00;95.70
49731;DHT22;35622;52.008;5.426;2023-12-07T11:51:36;5.00;95.70
49731;DHT22;35622;52.008;5.426;2023-12-07T11:54:02;5.10;95.80
49731;DHT22;35622;52.008;5.426;2023-12-07T11:56:28;5.40;95.40
49731;DHT22;35622;52.008;5.426;2023-12-07T11:58:53;5.50;95.10
49731;DHT22;35622;52.008;5.426;2023-12-07T12:01:21;5.50;94.80
49731;DHT22;35622;52.008;5.426;2023-12-07T12:03:47;5.40;95.20
49731;DHT22;35622;52.008;5.426;2023-12-07T12:06:13;5.60;95.00
49731;DHT22;35622;52.008;5.426;2023-12-07T12:08:40;5.50;94.60
49731;DHT22;35622;52.008;5.426;2023-12-07T12:11:07;5.40;95.20
49731;DHT22;35622;52.008;5.426;2023-12-07T12:13:36;5.60;95.30
49731;DHT22;35622;52.008;5.426;2023-12-07T12:16:03;5.70;95.10
49731;DHT22;35622;52.008;5.426;2023-12-07T12:18:29;5.90;94.80
49731;DHT22;35622;52.008;5.426;2023-12-07T12:20:54;6.10;94.50
49731;DHT22;35622;52.008;5.426;2023-12-07T12:23:20;6.20;94.40
49731;DHT22;35622;52.008;5.426;2023-12-07T12:25:47;6.00;94.80
49731;DHT22;35622;52.008;5.426;2023-12-07T12:28:22;6.10;95.00
49731;DHT22;35622;52.008;5.426;2023-12-07T12:30:50;6.40;94.50
49731;DHT22;35622;52.008;5.426;2023-12-07T12:33:16;6.30;94.20
49731;DHT22;35622;52.008;5.426;2023-12-07T12:35:42;6.20;94.30
49731;DHT22;35622;52.008;5.426;2023-12-07T12:38:09;6.60;94.00
49731;DHT22;35622;52.008;5.426;2023-12-07T12:40:36;6.60;93.80
49731;DHT22;35622;52.008;5.426;2023-12-07T12:43:02;6.50;93.90
49731;DHT22;35622;52.008;5.426;2023-12-07T12:45:27;6.70;93.80
49731;DHT22;35622;52.008;5.426;2023-12-07T12:47:54;6.40;93.50
49731;DHT22;35622;52.008;5.426;2023-12-07T12:50:40;6.20;94.10
49731;DHT22;35622;52.008;5.426;2023-12-07T12:53:08;6.10;94.70
49731;DHT22;35622;52.008;5.426;2023-12-07T12:55:36;6.30;94.60
49731;DHT22;35622;52.008;5.426;2023-12-07T12:58:02;6.60;94.30
49731;DHT22;35622;52.008;5.426;2023-12-07T13:00:30;6.50;94.30
49731;DHT22;35622;52.008;5.426;2023-12-07T13:02:56;6.50;94.40
49731;DHT22;35622;52.008;5.426;2023-12-07T13:05:22;6.30;94.60
49731;DHT22;35622;52.008;5.426;2023-12-07T13:07:48;6.10;95.00
49731;DHT22;35622;52.008;5.426;2023-12-07T13:10:15;6.10;95.70
49731;DHT22;35622;52.008;5.426;2023-12-07T13:12:41;6.10;95.30
49731;DHT22;35622;52.008;5.426;2023-12-07T13:15:07;6.00;95.80
49731;DHT22;35622;52.008;5.426;2023-12-07T13:17:33;6.20;95.80
49731;DHT22;35622;52.008;5.426;2023-12-07T13:19:59;5.80;96.20
49731;DHT22;35622;52.008;5.426;2023-12-07T13:22:24;5.90;96.10
49731;DHT22;35622;52.008;5.426;2023-12-07T13:24:50;5.90;96.50
49731;DHT22;35622;52.008;5.426;2023-12-07T13:27:16;5.90;97.00
49731;DHT22;35622;52.008;5.426;2023-12-07T13:29:41;6.10;96.50
49731;DHT22;35622;52.008;5.426;2023-12-07T13:32:07;6.00;96.40
49731;DHT22;35622;52.008;5.426;2023-12-07T13:34:33;6.20;96.40
49731;DHT22;35622;52.008;5.426;2023-12-07T13:36:59;6.40;96.10
49731;DHT22;35622;52.008;5.426;2023-12-07T13:39:25;6.60;96.00
49731;DHT22;35622;52.008;5.426;2023-12-07T13:41:52;6.60;95.40
49731;DHT22;35622;52.008;5.426;2023-12-07T13:44:17;6.70;95.30
49731;DHT22;35622;52.008;5.426;2023-12-07T13:46:43;6.90;95.50
49731;DHT22;35622;52.008;5.426;2023-12-07T13:49:10;6.90;95.30
49731;DHT22;35622;52.008;5.426;2023-12-07T13:51:39;7.20;94.50
49731;DHT22;35622;52.008;5.426;2023-12-07T13:54:05;7.00;94.30
49731;DHT22;35622;52.008;5.426;2023-12-07T13:56:33;7.00;94.60
49731;DHT22;35622;52.008;5.426;2023-12-07T13:58:59;7.20;94.70
49731;DHT22;35622;52.008;5.426;2023-12-07T14:01:25;7.00;94.60
49731;DHT22;35622;52.008;5.426;2023-12-07T14:03:51;7.10;94.70
49731;DHT22;35622;52.008;5.426;2023-12-07T14:06:24;7.20;94.50
49731;DHT22;35622;52.008;5.426;2023-12-07T14:08:51;7.20;94.50
49731;DHT22;35622;52.008;5.426;2023-12-07T14:11:17;7.20;94.40
49731;DHT22;35622;52.008;5.426;2023-12-07T14:13:44;7.40;94.20
49731;DHT22;35622;52.008;5.426;2023-12-07T14:16:12;7.20;94.30
49731;DHT22;35622;52.008;5.426;2023-12-07T14:18:37;7.40;94.10
49731;DHT22;35622;52.008;5.426;2023-12-07T14:21:04;7.20;93.80
49731;DHT22;35622;52.008;5.426;2023-12-07T14:23:29;7.20;94.00
49731;DHT22;35622;52.008;5.426;2023-12-07T14:25:55;7.30;93.90
49731;DHT22;35622;52.008;5.426;2023-12-07T14:28:24;7.20;93.80
49731;DHT22;35622;52.008;5.426;2023-12-07T14:30:50;7.10;94.10
49731;DHT22;35622;52.008;5.426;2023-12-07T14:33:21;7.00;93.90
49731;DHT22;35622;52.008;5.426;2023-12-07T14:35:47;6.80;93.90
49731;DHT22;35622;52.008;5.426;2023-12-07T14:38:14;6.90;93.90
49731;DHT22;35622;52.008;5.426;2023-12-07T14:40:40;6.80;94.20
49731;DHT22;35622;52.008;5.426;2023-12-07T14:43:05;6.80;93.70
49731;DHT22;35622;52.008;5.426;2023-12-07T14:45:31;6.70;93.70
49731;DHT22;35622;52.008;5.426;2023-12-07T14:47:57;6.60;94.00
49731;DHT22;35622;52.008;5.426;2023-12-07T14:50:23;6.90;93.80
49731;DHT22;35622;52.008;5.426;2023-12-07T14:52:49;6.80;93.60
49731;DHT22;35622;52.008;5.426;2023-12-07T14:55:15;6.70;93.60
49731;DHT22;35622;52.008;5.426;2023-12-07T14:57:40;6.80;93.80
49731;DHT22;35622;52.008;5.426;2023-12-07T15:00:06;6.70;93.80
49731;DHT22;35622;52.008;5.426;2023-12-07T15:02:32;6.70;93.90
49731;DHT22;35622;52.008;5.426;2023-12-07T15:04:58;6.60;93.50
49731;DHT22;35622;52.008;5.426;2023-12-07T15:07:24;6.50;93.70
49731;DHT22;35622;52.008;5.426;2023-12-07T15:09:49;6.50;93.80
49731;DHT22;35622;52.008;5.426;2023-12-07T15:12:17;6.50;93.50
49731;DHT22;35622;52.008;5.426;2023-12-07T15:14:44;6.30;93.90
49731;DHT22;35622;52.008;5.426;2023-12-07T15:17:11;6.20;94.00
49731;DHT22;35622;52.008;5.426;2023-12-07T15:19:37;6.30;94.10
49731;DHT22;35622;52.008;5.426;2023-12-07T15:22:03;6.20;93.90
49731;DHT22;35622;52.008;5.426;2023-12-07T15:24:29;6.30;93.90
49731;DHT22;35622;52.008;5.426;2023-12-07T15:26:55;6.30;93.80
49731;DHT22;35622;52.008;5.426;2023-12-07T15:29:21;6.30;93.70
49731;DHT22;35622;52.008;5.426;2023-12-07T15:31:46;6.40;93.40
49731;DHT22;35622;52.008;5.426;2023-12-07T15:34:12;6.40;93.10
49731;DHT22;35622;52.008;5.426;2023-12-07T15:36:38;6.40;93.20
49731;DHT22;35622;52.008;5.426;2023-12-07T15:39:03;6.20;93.70
49731;DHT22;35622;52.008;5.426;2023-12-07T15:41:29;6.00;94.20
49731;DHT22;35622;52.008;5.426;2023-12-07T15:43:54;6.10;94.20
49731;DHT22;35622;52.008;5.426;2023-12-07T15:46:20;5.90;93.90